createdAt,value
2018-10-19T00:00:31.367Z,102078.63
2018-10-19T00:01:35.444Z,102083.47
2018-10-19T00:02:39.581Z,102078.11
2018-10-19T00:03:43.602Z,102080.31
2018-10-19T00:04:47.692Z,102074.95
2018-10-19T00:05:51.736Z,102078.86
2018-10-19T00:06:55.898Z,102080.20
2018-10-19T00:08:00.020Z,102071.20
2018-10-19T00:09:05.519Z,102069.12
2018-10-19T00:10:10.066Z,102070.59
2018-10-19T00:11:14.262Z,102062.30
2018-10-19T00:12:18.275Z,102069.22
2018-10-19T00:13:22.327Z,102064.97
2018-10-19T00:14:26.412Z,102063.77
2018-10-19T00:15:30.535Z,102067.41
2018-10-19T00:16:34.559Z,102064.37
2018-10-19T00:17:38.597Z,102061.69
2018-10-19T00:18:42.751Z,102062.06
2018-10-19T00:19:46.795Z,102059.98
2018-10-19T00:20:50.901Z,102061.94
2018-10-19T00:21:54.956Z,102064.62
2018-10-19T00:22:59.139Z,102066.20
2018-10-19T00:24:03.220Z,102058.18
2018-10-19T00:25:07.736Z,102058.80
2018-10-19T00:26:11.916Z,102062.82
2018-10-19T00:27:16.135Z,102062.82
2018-10-19T00:28:20.159Z,102058.06
2018-10-19T00:29:24.265Z,102051.52
2018-10-19T00:30:28.302Z,102055.05
2018-10-19T00:31:32.446Z,102057.09
2018-10-19T00:32:36.541Z,102054.28
2018-10-19T00:33:40.839Z,102054.16
2018-10-19T00:34:44.909Z,102050.16
2018-10-19T00:35:49.073Z,102053.20
2018-10-19T00:36:53.328Z,102054.65
2018-10-19T00:37:57.248Z,102055.88
2018-10-19T00:39:01.362Z,102051.38
2018-10-19T00:40:05.685Z,102054.54
2018-10-19T00:41:09.803Z,102051.97
2018-10-19T00:42:13.966Z,102057.33
2018-10-19T00:43:18.037Z,102048.21
2018-10-19T00:44:22.193Z,102056.38
2018-10-19T00:45:31.540Z,102056.01
2018-10-19T00:46:35.599Z,102050.77
2018-10-19T00:47:39.755Z,102053.81
2018-10-19T00:48:43.797Z,102054.30
2018-10-19T00:49:48.029Z,102057.34
2018-10-19T00:50:52.194Z,102057.83
2018-10-19T00:51:56.226Z,102057.59
2018-10-19T00:53:00.454Z,102057.59
2018-10-19T00:54:04.448Z,102057.45
2018-10-19T00:55:08.508Z,102054.92
2018-10-19T00:56:12.692Z,102053.09
2018-10-19T00:57:16.879Z,102058.31
2018-10-19T00:58:20.923Z,102054.19
2018-10-19T00:59:24.939Z,102052.37
2018-10-19T01:00:29.040Z,102050.17
2018-10-19T01:01:33.099Z,102054.53
2018-10-19T01:02:37.154Z,102055.86
2018-10-19T01:03:41.318Z,102045.67
2018-10-19T01:04:45.389Z,102050.41
2018-10-19T01:05:49.423Z,102054.42
2018-10-19T01:06:53.547Z,102049.06
2018-10-19T01:07:57.605Z,102050.78
2018-10-19T01:09:01.800Z,102051.49
2018-10-19T01:10:06.175Z,102048.81
2018-10-19T01:11:10.269Z,102049.19
2018-10-19T01:12:14.290Z,102043.84
2018-10-19T01:13:18.387Z,102047.85
2018-10-19T01:14:22.472Z,102047.85
2018-10-19T01:15:27.881Z,102047.48
2018-10-19T01:16:32.117Z,102043.57
2018-10-19T01:17:36.673Z,102045.42
2018-10-19T01:18:40.725Z,102042.00
2018-10-19T01:19:44.898Z,102044.82
2018-10-19T01:20:48.914Z,102044.93
2018-10-19T01:21:52.953Z,102041.91
2018-10-19T01:22:57.065Z,102037.16
2018-10-19T01:24:01.064Z,102037.16
2018-10-19T01:25:05.510Z,102032.77
2018-10-19T01:26:09.540Z,102040.69
2018-10-19T01:27:13.647Z,102042.02
2018-10-19T01:28:17.837Z,102043.84
2018-10-19T01:29:21.961Z,102038.48
2018-10-19T01:30:26.063Z,102032.66
2018-10-19T01:31:30.149Z,102034.48
2018-10-19T01:32:34.168Z,102035.44
2018-10-19T01:33:38.272Z,102035.44
2018-10-19T01:34:42.474Z,102035.44
2018-10-19T01:35:46.641Z,102036.06
2018-10-19T01:36:50.737Z,102033.87
2018-10-19T01:37:55.249Z,102036.06
2018-10-19T01:38:59.303Z,102036.06
2018-10-19T01:40:03.567Z,102039.59
2018-10-19T01:41:07.698Z,102037.88
2018-10-19T01:42:11.814Z,102032.42
2018-10-19T01:43:15.847Z,102040.45
2018-10-19T01:44:20.016Z,102039.70
2018-10-19T01:45:24.118Z,102034.02
2018-10-19T01:46:28.262Z,102030.34
2018-10-19T01:47:32.356Z,102035.69
2018-10-19T01:48:36.451Z,102032.30
2018-10-19T01:49:40.551Z,102035.46
2018-10-19T01:50:44.642Z,102034.61
2018-10-19T01:51:48.668Z,102035.94
2018-10-19T01:52:52.986Z,102043.97
2018-10-19T01:53:57.071Z,102034.61
2018-10-19T01:55:01.167Z,102041.77
2018-10-19T01:56:05.316Z,102032.30
2018-10-19T01:57:09.425Z,102033.64
2018-10-19T01:58:13.646Z,102034.50
2018-10-19T01:59:17.790Z,102042.52
2018-10-19T02:00:21.815Z,102038.88
2018-10-19T02:01:26.041Z,102037.66
2018-10-19T02:02:30.097Z,102039.84
2018-10-19T02:03:34.168Z,102040.33
2018-10-19T02:04:38.294Z,102043.72
2018-10-19T02:05:42.419Z,102039.36
2018-10-19T02:06:46.452Z,102044.58
2018-10-19T02:07:50.539Z,102040.22
2018-10-19T02:08:54.602Z,102049.07
2018-10-19T02:09:58.675Z,102046.05
2018-10-19T02:11:02.763Z,102048.73
2018-10-19T02:12:07.102Z,102051.41
2018-10-19T02:13:11.204Z,102045.58
2018-10-19T02:14:15.260Z,102050.06
2018-10-19T02:15:19.443Z,102053.33
2018-10-19T02:16:23.632Z,102054.33
2018-10-19T02:17:27.670Z,102051.28
2018-10-19T02:18:31.795Z,102054.44
2018-10-19T02:19:36.499Z,102054.06
2018-10-19T02:20:40.584Z,102052.39
2018-10-19T02:21:44.663Z,102053.34
2018-10-19T02:22:48.790Z,102056.13
2018-10-19T02:23:52.952Z,102058.80
2018-10-19T02:24:57.033Z,102052.37
2018-10-19T02:26:01.065Z,102050.69
2018-10-19T02:27:05.522Z,102053.36
2018-10-19T02:28:09.556Z,102049.35
2018-10-19T02:29:13.645Z,102045.68
2018-10-19T02:30:17.739Z,102051.78
2018-10-19T02:31:21.890Z,102049.33
2018-10-19T02:32:26.058Z,102053.24
2018-10-19T02:33:30.142Z,102049.56
2018-10-19T02:34:34.240Z,102046.89
2018-10-19T02:35:38.558Z,102048.61
2018-10-19T02:36:42.697Z,102049.56
2018-10-19T02:37:46.877Z,102045.93
2018-10-19T02:38:51.296Z,102053.81
2018-10-19T02:39:55.302Z,102051.52
2018-10-19T02:40:59.659Z,102047.88
2018-10-19T02:42:03.934Z,102046.91
2018-10-19T02:43:08.008Z,102050.06
2018-10-19T02:44:12.126Z,102047.73
2018-10-19T02:45:16.235Z,102050.78
2018-10-19T02:46:20.586Z,102052.12
2018-10-19T02:47:24.732Z,102047.73
2018-10-19T02:48:28.733Z,102050.41
2018-10-19T02:49:32.783Z,102046.39
2018-10-19T02:50:36.835Z,102052.59
2018-10-19T02:51:40.844Z,102048.59
2018-10-19T02:52:44.951Z,102048.11
2018-10-19T02:53:49.024Z,102047.14
2018-10-19T02:54:53.267Z,102049.81
2018-10-19T02:55:57.347Z,102048.48
2018-10-19T02:57:01.476Z,102044.33
2018-10-19T02:58:05.460Z,102055.41
2018-10-19T02:59:09.670Z,102050.05
2018-10-19T03:00:13.658Z,102057.45
2018-10-19T03:01:17.855Z,102056.25
2018-10-19T03:02:21.930Z,102059.04
2018-10-19T03:03:26.141Z,102056.84
2018-10-19T03:04:30.166Z,102058.70
2018-10-19T03:05:34.185Z,102059.89
2018-10-19T03:06:38.207Z,102059.89
2018-10-19T03:07:42.316Z,102056.84
2018-10-19T03:08:46.345Z,102064.88
2018-10-19T03:09:50.373Z,102063.20
2018-10-19T03:10:54.481Z,102059.66
2018-10-19T03:11:58.550Z,102061.97
2018-10-19T03:13:02.728Z,102059.77
2018-10-19T03:14:07.022Z,102064.89
2018-10-19T03:15:11.109Z,102066.60
2018-10-19T03:16:15.078Z,102060.87
2018-10-19T03:17:19.273Z,102058.34
2018-10-19T03:18:23.327Z,102057.00
2018-10-19T03:19:27.486Z,102061.84
2018-10-19T03:20:31.506Z,102057.00
2018-10-19T03:21:35.584Z,102068.05
2018-10-19T03:22:39.635Z,102057.23
2018-10-19T03:23:43.671Z,102057.72
2018-10-19T03:24:47.910Z,102058.09
2018-10-19T03:25:58.257Z,102059.06
2018-10-19T03:27:02.450Z,102056.01
2018-10-19T03:28:06.404Z,102051.66
2018-10-19T03:29:10.560Z,102056.48
2018-10-19T03:30:14.620Z,102057.83
2018-10-19T03:31:18.812Z,102050.80
2018-10-19T03:32:22.738Z,102052.99
2018-10-19T03:33:26.840Z,102050.80
2018-10-19T03:34:30.899Z,102055.67
2018-10-19T03:35:34.940Z,102049.94
2018-10-19T03:36:39.201Z,102052.99
2018-10-19T03:37:43.288Z,102051.66
2018-10-19T03:38:47.397Z,102056.63
2018-10-19T03:39:51.595Z,102054.92
2018-10-19T03:40:55.596Z,102053.58
2018-10-19T03:41:59.708Z,102057.00
2018-10-19T03:43:04.340Z,102055.30
2018-10-19T03:44:08.392Z,102058.83
2018-10-19T03:45:12.496Z,102054.33
2018-10-19T03:46:16.566Z,102056.01
2018-10-19T03:47:20.688Z,102054.56
2018-10-19T03:48:24.714Z,102059.91
2018-10-19T03:49:28.837Z,102053.22
2018-10-19T03:50:32.920Z,102069.28
2018-10-19T03:51:37.010Z,102055.42
2018-10-19T03:52:40.991Z,102059.43
2018-10-19T03:53:45.069Z,102059.77
2018-10-19T03:54:49.281Z,102061.48
2018-10-19T03:55:53.317Z,102061.11
2018-10-19T03:56:57.417Z,102064.16
2018-10-19T03:58:01.553Z,102066.84
2018-10-19T03:59:06.082Z,102069.88
2018-10-19T04:00:10.009Z,102063.20
2018-10-19T04:01:14.080Z,102069.27
2018-10-19T04:02:18.187Z,102068.78
2018-10-19T04:03:22.875Z,102070.35
2018-10-19T04:04:27.061Z,102062.95
2018-10-19T04:05:31.329Z,102057.22
2018-10-19T04:06:35.348Z,102064.88
2018-10-19T04:07:39.435Z,102062.11
2018-10-19T04:08:43.480Z,102062.59
2018-10-19T04:09:47.713Z,102060.87
2018-10-19T04:10:51.735Z,102063.55
2018-10-19T04:11:55.797Z,102063.69
2018-10-19T04:12:59.816Z,102063.32
2018-10-19T04:14:03.906Z,102075.36
2018-10-19T04:15:08.932Z,102070.37
2018-10-19T04:16:12.902Z,102065.03
2018-10-19T04:17:17.114Z,102069.52
2018-10-19T04:18:21.204Z,102068.30
2018-10-19T04:19:25.335Z,102072.31
2018-10-19T04:20:29.395Z,102070.97
2018-10-19T04:21:33.877Z,102069.77
2018-10-19T04:22:37.934Z,102066.48
2018-10-19T04:23:42.103Z,102070.97
2018-10-19T04:24:46.164Z,102070.48
2018-10-19T04:25:50.231Z,102071.45
2018-10-19T04:26:54.329Z,102069.29
2018-10-19T04:27:58.355Z,102074.27
2018-10-19T04:29:02.780Z,102068.17
2018-10-19T04:30:07.600Z,102074.37
2018-10-19T04:31:11.719Z,102070.50
2018-10-19T04:32:15.868Z,102074.52
2018-10-19T04:33:20.012Z,102073.66
2018-10-19T04:34:24.178Z,102068.55
2018-10-19T04:35:28.384Z,102069.16
2018-10-19T04:36:32.677Z,102073.17
2018-10-19T04:37:36.810Z,102070.61
2018-10-19T04:38:40.827Z,102070.75
2018-10-19T04:39:44.962Z,102069.41
2018-10-19T04:40:49.005Z,102068.55
2018-10-19T04:41:53.169Z,102066.36
2018-10-19T04:42:57.238Z,102065.98
2018-10-19T04:44:01.280Z,102064.04
2018-10-19T04:45:05.900Z,102062.95
2018-10-19T04:46:10.044Z,102062.86
2018-10-19T04:47:14.254Z,102063.34
2018-10-19T04:48:18.307Z,102064.30
2018-10-19T04:49:22.368Z,102062.59
2018-10-19T04:50:26.462Z,102061.39
2018-10-19T04:51:30.495Z,102063.20
2018-10-19T04:52:34.610Z,102062.97
2018-10-19T04:53:38.691Z,102062.48
2018-10-19T04:54:43.049Z,102062.48
2018-10-19T04:55:47.205Z,102063.83
2018-10-19T04:56:51.263Z,102066.12
2018-10-19T04:57:55.334Z,102066.23
2018-10-19T04:58:59.520Z,102068.42
2018-10-19T05:00:03.549Z,102074.73
2018-10-19T05:01:07.997Z,102072.57
2018-10-19T05:02:12.290Z,102076.31
2018-10-19T05:03:16.388Z,102079.84
2018-10-19T05:04:20.532Z,102079.98
2018-10-19T05:05:24.720Z,102081.91
2018-10-19T05:06:28.930Z,102083.38
2018-10-19T05:07:32.852Z,102087.87
2018-10-19T05:08:37.015Z,102085.20
2018-10-19T05:09:41.072Z,102085.57
2018-10-19T05:10:45.283Z,102084.72
2018-10-19T05:11:49.350Z,102086.91
2018-10-19T05:12:53.421Z,102083.48
2018-10-19T05:13:57.665Z,102085.44
2018-10-19T05:15:01.627Z,102085.54
2018-10-19T05:16:05.879Z,102088.69
2018-10-19T05:17:10.573Z,102091.13
2018-10-19T05:18:14.620Z,102089.07
2018-10-19T05:19:18.745Z,102088.08
2018-10-19T05:20:22.865Z,102083.83
2018-10-19T05:21:26.929Z,102089.66
2018-10-19T05:22:31.065Z,102091.00
2018-10-19T05:23:35.124Z,102083.94
2018-10-19T05:24:39.352Z,102085.27
2018-10-19T05:25:43.469Z,102081.40
2018-10-19T05:26:47.470Z,102080.30
2018-10-19T05:27:51.533Z,102079.34
2018-10-19T05:28:56.041Z,102083.83
2018-10-19T05:30:00.080Z,102086.23
2018-10-19T05:31:04.271Z,102084.55
2018-10-19T05:32:08.443Z,102087.33
2018-10-19T05:33:12.406Z,102086.98
2018-10-19T05:34:16.431Z,102084.31
2018-10-19T05:35:20.538Z,102086.61
2018-10-19T05:36:24.793Z,102083.21
2018-10-19T05:37:29.109Z,102088.90
2018-10-19T05:38:33.323Z,102090.00
2018-10-19T05:39:37.489Z,102088.77
2018-10-19T05:40:41.549Z,102086.47
2018-10-19T05:41:45.667Z,102090.09
2018-10-19T05:42:49.754Z,102090.58
2018-10-19T05:43:53.847Z,102088.38
2018-10-19T05:44:58.102Z,102093.25
2018-10-19T05:46:02.134Z,102092.02
2018-10-19T05:47:06.488Z,102093.11
2018-10-19T05:48:11.130Z,102093.20
2018-10-19T05:49:15.740Z,102088.86
2018-10-19T05:50:19.888Z,102092.01
2018-10-19T05:51:23.987Z,102091.63
2018-10-19T05:52:28.069Z,102093.45
2018-10-19T05:53:32.775Z,102093.45
2018-10-19T05:54:36.889Z,102091.25
2018-10-19T05:55:40.937Z,102089.92
2018-10-19T05:56:44.945Z,102096.50
2018-10-19T05:57:49.015Z,102096.88
2018-10-19T05:58:53.151Z,102093.83
2018-10-19T05:59:57.154Z,102100.37
2018-10-19T06:01:01.240Z,102093.59
2018-10-19T06:02:06.143Z,102098.93
2018-10-19T06:03:10.198Z,102102.33
2018-10-19T06:04:14.262Z,102100.16
2018-10-19T06:05:18.328Z,102097.97
2018-10-19T06:06:22.419Z,102097.59
2018-10-19T06:07:33.202Z,102098.55
2018-10-19T06:08:37.316Z,102106.09
2018-10-19T06:09:41.382Z,102094.06
2018-10-19T06:10:45.453Z,102101.36
2018-10-19T06:11:49.550Z,102095.77
2018-10-19T06:12:53.551Z,102099.88
2018-10-19T06:13:57.732Z,102098.30
2018-10-19T06:15:01.835Z,102103.64
2018-10-19T06:16:06.170Z,102105.94
2018-10-19T06:17:10.239Z,102101.20
2018-10-19T06:18:14.392Z,102094.53
2018-10-19T06:19:18.450Z,102101.55
2018-10-19T06:20:22.553Z,102096.72
2018-10-19T06:21:26.700Z,102102.55
2018-10-19T06:22:30.735Z,102101.55
2018-10-19T06:23:34.791Z,102102.55
2018-10-19T06:24:38.854Z,102112.38
2018-10-19T06:25:42.911Z,102103.73
2018-10-19T06:26:46.983Z,102110.80
2018-10-19T06:27:51.145Z,102115.14
2018-10-19T06:28:55.361Z,102119.53
2018-10-19T06:29:59.792Z,102119.62
2018-10-19T06:31:04.184Z,102114.29
2018-10-19T06:32:08.377Z,102117.34
2018-10-19T06:33:12.457Z,102119.91
2018-10-19T06:34:16.472Z,102119.91
2018-10-19T06:35:20.654Z,102122.10
2018-10-19T06:36:24.852Z,102117.58
2018-10-19T06:37:28.955Z,102120.63
2018-10-19T06:38:33.324Z,102121.01
2018-10-19T06:39:37.486Z,102124.54
2018-10-19T06:40:41.552Z,102116.02
2018-10-19T06:41:45.711Z,102121.16
2018-10-19T06:42:50.260Z,102117.02
2018-10-19T06:43:54.315Z,102120.06
2018-10-19T06:44:58.446Z,102120.92
2018-10-19T06:46:02.845Z,102123.69
2018-10-19T06:47:07.030Z,102115.81
2018-10-19T06:48:10.981Z,102121.16
2018-10-19T06:49:15.053Z,102122.48
2018-10-19T06:50:19.395Z,102122.36
2018-10-19T06:51:23.363Z,102116.53
2018-10-19T06:52:27.556Z,102121.50
2018-10-19T06:53:31.758Z,102125.03
2018-10-19T06:54:35.980Z,102121.98
2018-10-19T06:55:40.168Z,102124.17
2018-10-19T06:56:44.588Z,102126.84
2018-10-19T06:57:48.622Z,102121.40
2018-10-19T06:58:52.823Z,102118.25
2018-10-19T06:59:56.893Z,102122.02
2018-10-19T07:01:01.018Z,102120.07
2018-10-19T07:02:05.549Z,102125.79
2018-10-19T07:03:09.803Z,102118.53
2018-10-19T07:04:13.867Z,102128.27
2018-10-19T07:05:17.979Z,102131.31
2018-10-19T07:06:22.147Z,102122.54
2018-10-19T07:07:26.288Z,102131.31
2018-10-19T07:08:30.637Z,102124.63
2018-10-19T07:09:34.609Z,102121.72
2018-10-19T07:10:38.689Z,102125.49
2018-10-19T07:11:42.771Z,102122.20
2018-10-19T07:12:46.909Z,102123.92
2018-10-19T07:13:51.051Z,102120.25
2018-10-19T07:14:55.159Z,102120.63
2018-10-19T07:15:59.386Z,102116.52
2018-10-19T07:17:03.496Z,102120.02
2018-10-19T07:18:07.621Z,102118.68
2018-10-19T07:19:11.733Z,102124.64
2018-10-19T07:20:15.854Z,102117.95
2018-10-19T07:21:20.772Z,102121.97
2018-10-19T07:22:25.292Z,102125.60
2018-10-19T07:23:29.504Z,102124.98
2018-10-19T07:24:33.612Z,102133.13
2018-10-19T07:25:37.847Z,102132.41
2018-10-19T07:26:42.158Z,102135.56
2018-10-19T07:27:46.413Z,102125.22
2018-10-19T07:28:50.512Z,102126.83
2018-10-19T07:29:54.616Z,102126.59
2018-10-19T07:30:58.758Z,102121.25
2018-10-19T07:32:02.947Z,102125.60
2018-10-19T07:33:06.991Z,102129.51
2018-10-19T07:34:11.024Z,102130.61
2018-10-19T07:35:15.141Z,102125.73
2018-10-19T07:36:19.260Z,102119.06
2018-10-19T07:37:23.558Z,102128.08
2018-10-19T07:38:28.007Z,102119.44
2018-10-19T07:39:32.342Z,102123.59
2018-10-19T07:40:36.636Z,102129.55
2018-10-19T07:41:40.760Z,102131.37
2018-10-19T07:42:44.977Z,102131.50
2018-10-19T07:43:49.076Z,102134.79
2018-10-19T07:44:53.183Z,102130.44
2018-10-19T07:45:57.268Z,102131.16
2018-10-19T07:47:01.520Z,102138.56
2018-10-19T07:48:05.854Z,102131.87
2018-10-19T07:49:09.687Z,102135.64
2018-10-19T07:50:13.916Z,102138.31
2018-10-19T07:51:17.950Z,102138.69
2018-10-19T07:52:22.132Z,102141.13
2018-10-19T07:53:26.265Z,102144.55
2018-10-19T07:54:30.437Z,102149.28
2018-10-19T07:55:35.330Z,102147.46
2018-10-19T07:56:39.456Z,102144.41
2018-10-19T07:57:43.612Z,102146.37
2018-10-19T07:58:47.705Z,102145.27
2018-10-19T07:59:51.855Z,102145.64
2018-10-19T08:00:56.056Z,102145.50
2018-10-19T08:02:00.117Z,102152.43
2018-10-19T08:03:04.467Z,102141.73
2018-10-19T08:04:08.566Z,102145.16
2018-10-19T08:05:12.682Z,102144.54
2018-10-19T08:06:16.756Z,102147.45
2018-10-19T08:07:20.870Z,102148.06
2018-10-19T08:08:25.189Z,102150.62
2018-10-19T08:09:29.333Z,102147.34
2018-10-19T08:10:33.485Z,102147.81
2018-10-19T08:11:37.773Z,102152.20
2018-10-19T08:12:41.775Z,102149.91
2018-10-19T08:13:46.029Z,102158.65
2018-10-19T08:14:50.212Z,102152.44
2018-10-19T08:15:54.379Z,102153.67
2018-10-19T08:16:58.522Z,102159.88
2018-10-19T08:18:02.764Z,102161.45
2018-10-19T08:19:06.888Z,102156.81
2018-10-19T08:20:11.396Z,102167.05
2018-10-19T08:21:15.559Z,102158.16
2018-10-19T08:22:20.881Z,102160.83
2018-10-19T08:23:25.062Z,102159.87
2018-10-19T08:24:29.108Z,102164.26
2018-10-19T08:25:33.233Z,102159.87
2018-10-19T08:26:37.452Z,102168.61
2018-10-19T08:27:41.758Z,102162.78
2018-10-19T08:28:45.784Z,102168.98
2018-10-19T08:29:49.934Z,102168.37
2018-10-19T08:30:54.273Z,102170.45
2018-10-19T08:31:59.606Z,102170.31
2018-10-19T08:33:03.625Z,102165.23
2018-10-19T08:34:07.781Z,102164.61
2018-10-19T08:35:11.915Z,102165.73
2018-10-19T08:36:15.963Z,102161.72
2018-10-19T08:37:20.146Z,102162.33
2018-10-19T08:38:24.416Z,102164.14
2018-10-19T08:39:28.654Z,102159.17
2018-10-19T08:40:32.955Z,102164.89
2018-10-19T08:41:37.198Z,102164.89
2018-10-19T08:42:41.225Z,102165.61
2018-10-19T08:43:45.643Z,102170.83
2018-10-19T08:44:49.746Z,102170.72
2018-10-19T08:45:53.968Z,102168.75
2018-10-19T08:46:57.988Z,102167.31
2018-10-19T08:48:02.211Z,102172.89
2018-10-19T08:49:07.821Z,102173.98
2018-10-19T08:50:11.868Z,102166.55
2018-10-19T08:51:16.143Z,102175.19
2018-10-19T08:52:20.270Z,102169.22
2018-10-19T08:53:24.424Z,102172.02
2018-10-19T08:54:28.542Z,102174.69
2018-10-19T08:55:32.642Z,102174.58
2018-10-19T08:56:36.659Z,102172.77
2018-10-19T08:57:40.776Z,102168.60
2018-10-19T08:58:44.842Z,102169.94
2018-10-19T08:59:49.237Z,102175.19
2018-10-19T09:00:53.456Z,102173.22
2018-10-19T09:01:57.669Z,102177.72
2018-10-19T09:03:01.981Z,102174.19
2018-10-19T09:04:06.064Z,102175.53
2018-10-19T09:05:10.246Z,102171.88
2018-10-19T09:06:14.404Z,102170.29
2018-10-19T09:07:18.459Z,102172.00
2018-10-19T09:08:22.599Z,102173.83
2018-10-19T09:09:26.785Z,102173.34
2018-10-19T09:10:31.203Z,102166.27
2018-10-19T09:11:35.389Z,102166.27
2018-10-19T09:12:39.545Z,102171.14
2018-10-19T09:13:43.501Z,102172.59
2018-10-19T09:14:57.868Z,102167.01
2018-10-19T09:16:02.028Z,102168.48
2018-10-19T09:17:06.217Z,102161.42
2018-10-19T09:18:10.462Z,102170.31
2018-10-19T09:19:14.531Z,102159.83
2018-10-19T09:20:18.569Z,102163.36
2018-10-19T09:21:22.612Z,102165.19
2018-10-19T09:22:26.780Z,102160.80
2018-10-19T09:23:30.833Z,102163.98
2018-10-19T09:24:34.854Z,102158.49
2018-10-19T09:25:38.913Z,102158.49
2018-10-19T09:26:44.192Z,102155.55
2018-10-19T09:27:48.259Z,102157.27
2018-10-19T09:28:52.476Z,102159.69
2018-10-19T09:29:56.583Z,102155.42
2018-10-19T09:31:00.638Z,102155.16
2018-10-19T09:32:05.241Z,102152.37
2018-10-19T09:33:09.643Z,102150.41
2018-10-19T09:34:13.732Z,102151.64
2018-10-19T09:35:24.200Z,102147.62
2018-10-19T09:36:28.453Z,102146.27
2018-10-19T09:37:32.397Z,102148.95
2018-10-19T09:38:36.424Z,102144.94
2018-10-19T09:39:40.549Z,102141.03
2018-10-19T09:40:44.987Z,102147.84
2018-10-19T09:41:49.054Z,102150.44
2018-10-19T09:42:53.151Z,102149.84
2018-10-19T09:43:57.268Z,102152.63
2018-10-19T09:45:01.448Z,102147.64
2018-10-19T09:46:05.734Z,102146.67
2018-10-19T09:47:09.872Z,102149.44
2018-10-19T09:48:13.942Z,102151.86
2018-10-19T09:49:18.067Z,102146.76
2018-10-19T09:50:22.181Z,102146.62
2018-10-19T09:51:26.313Z,102149.66
2018-10-19T09:52:31.112Z,102147.70
2018-10-19T09:53:35.189Z,102142.97
2018-10-19T09:54:39.284Z,102151.01
2018-10-19T09:55:43.453Z,102147.95
2018-10-19T09:56:47.582Z,102151.64
2018-10-19T09:57:51.677Z,102147.24
2018-10-19T09:58:55.836Z,102147.84
2018-10-19T09:59:59.940Z,102145.79
2018-10-19T10:01:08.197Z,102140.43
2018-10-19T10:02:12.235Z,102150.77
2018-10-19T10:03:16.363Z,102147.75
2018-10-19T10:04:20.396Z,102148.35
2018-10-19T10:05:24.493Z,102146.30
2018-10-19T10:06:29.128Z,102148.98
2018-10-19T10:07:33.165Z,102147.27
2018-10-19T10:08:37.207Z,102138.52
2018-10-19T10:09:41.259Z,102143.88
2018-10-19T10:10:45.356Z,102136.44
2018-10-19T10:11:49.482Z,102141.94
2018-10-19T10:12:53.617Z,102142.05
2018-10-19T10:13:57.699Z,102137.20
2018-10-19T10:15:02.011Z,102136.94
2018-10-19T10:16:05.998Z,102139.63
2018-10-19T10:17:10.139Z,102135.75
2018-10-19T10:18:14.099Z,102130.16
2018-10-19T10:19:18.188Z,102130.16
2018-10-19T10:20:22.241Z,102127.48
2018-10-19T10:21:26.306Z,102135.14
2018-10-19T10:22:30.471Z,102130.75
2018-10-19T10:23:34.721Z,102128.45
2018-10-19T10:24:38.762Z,102130.16
2018-10-19T10:25:43.105Z,102129.53
2018-10-19T10:26:47.281Z,102128.57
2018-10-19T10:27:51.431Z,102126.72
2018-10-19T10:28:55.747Z,102130.25
2018-10-19T10:29:59.869Z,102124.89
2018-10-19T10:31:06.652Z,102134.64
2018-10-19T10:32:10.654Z,102129.99
2018-10-19T10:33:14.800Z,102127.31
2018-10-19T10:34:19.269Z,102122.81
2018-10-19T10:35:23.438Z,102128.06
2018-10-19T10:36:27.591Z,102123.41
2018-10-19T10:37:31.819Z,102124.27
2018-10-19T10:38:35.991Z,102129.52
2018-10-19T10:39:40.055Z,102120.14
2018-10-19T10:40:44.367Z,102118.17
2018-10-19T10:41:48.466Z,102117.31
2018-10-19T10:42:52.734Z,102122.67
2018-10-19T10:43:57.011Z,102116.83
2018-10-19T10:45:01.261Z,102116.95
2018-10-19T10:46:05.743Z,102115.38
2018-10-19T10:47:09.929Z,102117.20
2018-10-19T10:48:13.955Z,102117.09
2018-10-19T10:49:18.048Z,102119.14
2018-10-19T10:50:22.229Z,102116.12
2018-10-19T10:51:26.415Z,102114.64
2018-10-19T10:52:30.542Z,102111.11
2018-10-19T10:53:34.632Z,102106.97
2018-10-19T10:54:38.776Z,102099.80
2018-10-19T10:55:42.878Z,102103.55
2018-10-19T10:56:46.851Z,102100.73
2018-10-19T10:57:51.031Z,102104.48
2018-10-19T10:58:55.472Z,102103.41
2018-10-19T10:59:59.570Z,102103.97
2018-10-19T11:01:06.449Z,102099.36
2018-10-19T11:02:10.741Z,102105.91
2018-10-19T11:03:14.872Z,102107.99
2018-10-19T11:04:19.172Z,102104.09
2018-10-19T11:05:23.256Z,102099.95
2018-10-19T11:06:27.408Z,102099.58
2018-10-19T11:07:31.703Z,102095.19
2018-10-19T11:08:35.614Z,102093.03
2018-10-19T11:09:39.880Z,102097.39
2018-10-19T11:10:43.913Z,102097.27
2018-10-19T11:11:48.054Z,102102.62
2018-10-19T11:12:52.216Z,102103.97
2018-10-19T11:13:56.284Z,102097.87
2018-10-19T11:15:00.321Z,102098.47
2018-10-19T11:16:04.896Z,102094.33
2018-10-19T11:17:08.990Z,102092.73
2018-10-19T11:18:13.448Z,102091.62
2018-10-19T11:19:17.661Z,102084.16
2018-10-19T11:20:21.908Z,102086.10
2018-10-19T11:21:26.067Z,102083.64
2018-10-19T11:22:30.118Z,102084.38
2018-10-19T11:23:34.515Z,102089.81
2018-10-19T11:24:38.841Z,102085.05
2018-10-19T11:25:42.811Z,102086.04
2018-10-19T11:26:47.146Z,102084.55
2018-10-19T11:27:51.195Z,102086.97
2018-10-19T11:28:55.973Z,102083.69
2018-10-19T11:30:00.109Z,102080.36
2018-10-19T11:31:04.505Z,102084.05
2018-10-19T11:32:08.591Z,102081.97
2018-10-19T11:33:12.699Z,102080.27
2018-10-19T11:34:16.828Z,102082.45
2018-10-19T11:35:20.891Z,102087.55
2018-10-19T11:36:24.964Z,102085.95
2018-10-19T11:37:29.104Z,102085.34
2018-10-19T11:38:33.082Z,102092.16
2018-10-19T11:39:46.704Z,102088.84
2018-10-19T11:40:50.897Z,102087.23
2018-10-19T11:41:55.016Z,102078.42
2018-10-19T11:42:59.143Z,102083.03
2018-10-19T11:44:03.344Z,102075.84
2018-10-19T11:45:07.532Z,102084.11
2018-10-19T11:46:11.712Z,102076.64
2018-10-19T11:47:15.787Z,102082.23
2018-10-19T11:48:19.872Z,102079.64
2018-10-19T11:49:23.998Z,102085.59
2018-10-19T11:50:28.041Z,102083.00
2018-10-19T11:51:32.140Z,102082.09
2018-10-19T11:52:36.337Z,102085.73
2018-10-19T11:53:40.398Z,102084.45
2018-10-19T11:54:44.474Z,102085.03
2018-10-19T11:55:48.583Z,102080.23
2018-10-19T11:56:52.669Z,102084.72
2018-10-19T11:57:56.833Z,102082.25
2018-10-19T11:59:00.912Z,102082.47
2018-10-19T12:00:05.144Z,102082.68
2018-10-19T12:01:09.249Z,102077.19
2018-10-19T12:02:13.284Z,102083.98
2018-10-19T12:03:17.338Z,102077.85
2018-10-19T12:04:21.468Z,102077.12
2018-10-19T12:05:25.672Z,102082.21
2018-10-19T12:06:29.752Z,102082.91
2018-10-19T12:07:33.909Z,102081.08
2018-10-19T12:08:38.111Z,102083.77
2018-10-19T12:09:42.335Z,102083.77
2018-10-19T12:10:46.392Z,102076.20
2018-10-19T12:11:50.419Z,102082.91
2018-10-19T12:12:54.651Z,102074.16